This is the latest recevied weather packets stored in our database for station/object KC8YYF. If no packets are shown the sender has not sent any weather packets the latest 10 day(s).
| Time | Temp. | Humidity | Pressure | Rain* | Wind** | Luminosity | Snow |
|---|---|---|---|---|---|---|---|
| 1777002765 | 15.56° C | 84% | 1013.1 hPa | 0 mm | - | 0 W/m² | - |
| 1777002460 | 15.56° C | 83% | 1013 hPa | 0 mm | - | 0 W/m² | - |
| 1777002158 | 15.56° C | 84% | 1013 hPa | 0 mm | - | 0 W/m² | - |
| 1777001857 | 15.56° C | 84% | 1013.4 hPa | 0 mm | - | 0 W/m² | - |
| 1777001557 | 16.11° C | 83% | 1013.2 hPa | 0 mm | - | 0 W/m² | - |
| 1777001252 | 16.11° C | 81% | 1013.1 hPa | 0 mm | - | 0 W/m² | - |
| 1777000948 | 16.11° C | 80% | 1013.1 hPa | 0 mm | - | 0 W/m² | - |
| 1777000645 | 16.11° C | 83% | 1013.2 hPa | 0 mm | - | 0 W/m² | - |
| 1777000341 | 16.11° C | 82% | 1013.2 hPa | 0 mm | - | 0 W/m² | - |
| 1777000037 | 16.11° C | 79% | 1013.5 hPa | 0 mm | - | 0 W/m² | - |
| 1776999733 | 16.11° C | 81% | 1013.2 hPa | 0 mm | - | 0 W/m² | - |
| 1776999430 | 16.11° C | 79% | 1013.1 hPa | 0 mm | - | 0 W/m² | - |
| 1776999126 | 16.11° C | 80% | 1013.2 hPa | 0 mm | - | 0 W/m² | - |
| 1776998823 | 16.67° C | 78% | 1013.2 hPa | 0 mm | - | 0 W/m² | - |
| 1776998520 | 17.22° C | 77% | 1013.2 hPa | 0 mm | - | 0 W/m² | - |
| 1776998216 | 16.67° C | 78% | 1013.4 hPa | 0 mm | - | 0 W/m² | - |
| 1776997911 | 17.22° C | 77% | 1013.5 hPa | 0 mm | - | 0 W/m² | - |
| 1776997607 | 17.78° C | 71% | 1013.5 hPa | 0 mm | - | 0 W/m² | - |
| 1776997303 | 17.78° C | 73% | 1013.5 hPa | 0 mm | - | 0 W/m² | - |
| 1776996999 | 17.22° C | 75% | 1013.6 hPa | 0 mm | - | 0 W/m² | - |
| 1776996695 | 17.22° C | 76% | 1013.5 hPa | 0 mm | - | 0 W/m² | - |
| 1776996392 | 17.22° C | 75% | 1013.4 hPa | 0 mm | - | 0 W/m² | - |
| 1776996089 | 17.22° C | 78% | 1013.2 hPa | 0 mm | - | 0 W/m² | - |
| 1776995786 | 17.22° C | 78% | 1013.7 hPa | 0 mm | - | 0 W/m² | - |
| 1776995485 | 17.22° C | 81% | 1013.5 hPa | 0 mm | - | 0 W/m² | - |
* Rain latest hour (hover to see other rain measurements)
** Current wind speed in m/s (hover to see current wind gust speed)